Time;durP1;ratioP1;P1;durP2;ratioP2;P2;SDS_P1;SDS_P2;PMS_P1;PMS_P2;Temp;Humidity;BMP_temperature;BMP_pressure;BME280_temperature;BME280_humidity;BME280_pressure;Samples;Min_cycle;Max_cycle;Signal;HPM_P1;HPM_P2
2023/08/08 00:01:56;;;;;;;10.75;3.55;;;;;;;14.94;100.00;101351.16;5082165;28;20427;-70
2023/08/08 00:04:23;;;;;;;10.65;4.43;;;;;;;14.83;100.00;101344.34;5073176;28;20425;-71
2023/08/08 00:06:50;;;;;;;8.20;4.40;;;;;;;14.80;100.00;101344.69;5078142;28;20048;-72
2023/08/08 00:09:16;;;;;;;8.63;4.22;;;;;;;14.77;100.00;101341.53;5068419;28;20140;-72
2023/08/08 00:11:43;;;;;;;10.50;4.10;;;;;;;14.74;100.00;101331.28;5064879;28;20036;-71
2023/08/08 00:14:09;;;;;;;11.70;4.43;;;;;;;14.64;100.00;101339.34;5081093;28;20531;-71
2023/08/08 00:16:36;;;;;;;8.65;3.90;;;;;;;14.63;100.00;101335.06;5083304;28;20114;-72
2023/08/08 00:19:03;;;;;;;8.82;4.00;;;;;;;14.62;100.00;101331.63;5076299;28;20056;-73
2023/08/08 00:21:29;;;;;;;9.88;4.95;;;;;;;14.59;100.00;101329.28;5070275;28;20059;-70
2023/08/08 00:23:56;;;;;;;11.73;4.32;;;;;;;14.64;100.00;101320.88;5076615;28;20063;-71
2023/08/08 00:26:22;;;;;;;11.35;3.85;;;;;;;14.63;100.00;101330.59;5075574;28;20044;-71
2023/08/08 00:28:49;;;;;;;8.40;4.20;;;;;;;14.59;100.00;101320.53;5074395;28;20067;-71
2023/08/08 00:31:17;;;;;;;11.13;4.13;;;;;;;14.62;100.00;101331.63;5055930;28;20558;-73
2023/08/08 00:33:44;;;;;;;10.48;4.35;;;;;;;14.59;100.00;101321.38;5080756;28;20055;-71
2023/08/08 00:36:10;;;;;;;8.40;4.45;;;;;;;14.50;100.00;101324.91;5071059;28;20056;-71
2023/08/08 00:38:37;;;;;;;7.15;4.07;;;;;;;14.49;100.00;101318.00;5085481;28;20051;-71
2023/08/08 00:41:04;;;;;;;6.93;4.35;;;;;;;14.52;100.00;101316.84;5076715;28;20482;-70
2023/08/08 00:43:31;;;;;;;8.20;4.28;;;;;;;14.52;100.00;101320.31;5053649;28;20057;-70
2023/08/08 00:45:57;;;;;;;9.43;4.68;;;;;;;14.57;100.00;101327.81;5072679;28;20101;-70
2023/08/08 00:48:25;;;;;;;7.38;3.83;;;;;;;14.56;100.00;101316.41;5065146;28;20056;-72
2023/08/08 00:50:52;;;;;;;9.32;3.92;;;;;;;14.60;100.00;101319.53;5089057;28;20520;-71
2023/08/08 00:53:23;;;;;;;10.05;4.38;;;;;;;14.58;100.00;101313.59;5065682;28;20382;-72
2023/08/08 00:55:50;;;;;;;11.48;3.83;;;;;;;14.61;100.00;101311.47;5063237;28;20060;-74
2023/08/08 00:58:17;;;;;;;8.53;4.07;;;;;;;14.62;100.00;101313.13;5072791;28;20117;-71
2023/08/08 01:00:44;;;;;;;8.68;3.80;;;;;;;14.63;100.00;101314.78;5070223;28;20281;-70
2023/08/08 01:03:11;;;;;;;8.73;3.55;;;;;;;14.70;100.00;101308.84;5090191;28;20454;-72
2023/08/08 01:05:55;;;;;;;7.57;3.90;;;;;;;14.75;100.00;101314.47;5079300;28;20055;-73
2023/08/08 01:08:31;;;;;;;8.63;3.42;;;;;;;14.77;100.00;101315.13;5068585;28;20055;-71
2023/08/08 01:10:59;;;;;;;8.32;3.78;;;;;;;14.79;100.00;101315.81;5058560;28;20124;-73
2023/08/08 01:13:27;;;;;;;9.82;3.90;;;;;;;14.82;100.00;101324.22;5072537;28;20048;-71
2023/08/08 01:15:56;;;;;;;8.68;3.83;;;;;;;14.81;100.00;101316.47;5085181;28;20076;-71
2023/08/08 01:18:24;;;;;;;8.05;4.05;;;;;;;14.81;100.00;101317.28;5076567;28;20052;-72
2023/08/08 01:20:52;;;;;;;7.13;3.45;;;;;;;14.86;100.00;101315.97;5089199;28;20048;-71
2023/08/08 01:23:23;;;;;;;;;;;;;;;14.89;100.00;101313.00;5065197;28;20127;-71
2023/08/08 01:25:51;;;;;;;8.20;4.32;;;;;;;14.87;100.00;101310.53;5059887;28;19926;-71
2023/08/08 01:28:22;;;;;;;7.43;3.80;;;;;;;14.91;100.00;101308.41;5085081;28;20055;-71
2023/08/08 01:30:50;;;;;;;8.77;3.72;;;;;;;14.90;100.00;101312.84;5076157;28;20139;-73
2023/08/08 01:33:16;;;;;;;8.93;3.60;;;;;;;14.88;100.00;101320.13;5069990;28;20048;-73
2023/08/08 01:35:56;;;;;;;9.07;4.10;;;;;;;14.93;100.00;101311.69;5063885;28;20397;-71
2023/08/08 01:38:28;;;;;;;9.82;3.90;;;;;;;14.97;100.00;101320.94;5082216;28;20044;-71
2023/08/08 01:40:57;;;;;;;9.20;4.20;;;;;;;14.92;100.00;101316.16;5057837;28;20051;-72
2023/08/08 01:43:24;;;;;;;8.60;4.00;;;;;;;14.91;100.00;101311.03;5068653;28;20044;-71
2023/08/08 01:45:52;;;;;;;10.20;4.05;;;;;;;14.82;100.00;101303.09;5083987;28;20402;-71
2023/08/08 01:48:19;;;;;;;9.57;3.60;;;;;;;14.78;100.00;101295.69;5071736;28;20063;-72
2023/08/08 01:50:45;;;;;;;12.57;4.03;;;;;;;14.78;100.00;101307.06;5089249;28;20055;-72
2023/08/08 01:53:12;;;;;;;11.95;4.13;;;;;;;14.72;100.00;101298.94;5064339;28;20104;-72
2023/08/08 01:55:38;;;;;;;8.45;3.60;;;;;;;14.66;100.00;101303.06;5075026;28;20071;-73
2023/08/08 01:58:05;;;;;;;8.35;4.07;;;;;;;14.64;100.00;101302.38;5049673;28;20049;-71
2023/08/08 02:00:32;;;;;;;10.73;3.25;;;;;;;14.59;100.00;101304.69;5076228;28;20055;-72
2023/08/08 02:02:59;;;;;;;9.85;3.75;;;;;;;14.53;100.00;101298.22;5074454;28;20101;-72
2023/08/08 02:05:25;;;;;;;5.88;3.65;;;;;;;14.57;100.00;101298.75;5064737;28;20079;-72
2023/08/08 02:07:52;;;;;;;8.13;3.50;;;;;;;14.51;100.00;101294.09;5071958;28;20052;-72
2023/08/08 02:10:18;;;;;;;9.70;3.92;;;;;;;14.48;100.00;101300.50;5061171;28;20089;-71
2023/08/08 02:12:45;;;;;;;9.82;3.53;;;;;;;14.47;100.00;101296.22;5089096;28;20040;-71
2023/08/08 02:15:11;;;;;;;9.15;3.72;;;;;;;14.47;100.00;101288.31;5065230;28;20663;-71
2023/08/08 02:17:38;;;;;;;13.32;3.85;;;;;;;14.51;100.00;101278.25;5061784;28;20132;-71
2023/08/08 02:20:06;;;;;;;10.10;3.33;;;;;;;14.50;100.00;101274.78;5062612;28;20092;-72
2023/08/08 02:22:34;;;;;;;7.90;3.25;;;;;;;14.51;100.00;101270.34;5047098;28;20041;-70
2023/08/08 02:25:00;;;;;;;10.10;3.65;;;;;;;14.53;100.00;101265.72;5067447;28;20055;-72
2023/08/08 02:27:27;;;;;;;8.30;3.28;;;;;;;14.53;100.00;101260.44;5063483;28;20416;-70
2023/08/08 02:29:53;;;;;;;8.68;3.30;;;;;;;14.60;100.00;101261.47;5052062;28;20064;-71
2023/08/08 02:32:20;;;;;;;7.50;3.40;;;;;;;14.56;100.00;101258.34;5051757;28;20127;-70
2023/08/08 02:34:46;;;;;;;13.05;3.95;;;;;;;14.50;100.00;101261.56;5067442;28;20795;-73
2023/08/08 02:37:13;;;;;;;10.00;3.15;;;;;;;14.54;100.00;101260.25;5080900;28;20134;-71
2023/08/08 02:39:40;;;;;;;12.27;3.47;;;;;;;14.52;100.00;101256.94;5046007;28;20464;-71
2023/08/08 02:42:07;;;;;;;7.68;3.20;;;;;;;14.50;100.00;101256.28;5085947;28;20052;-72
2023/08/08 02:44:33;;;;;;;8.20;2.95;;;;;;;14.51;100.00;101257.97;5072902;28;20102;-70
2023/08/08 02:47:00;;;;;;;11.50;3.67;;;;;;;14.51;100.00;101257.97;5074607;28;20408;-72
2023/08/08 02:49:27;;;;;;;9.77;2.83;;;;;;;14.44;100.00;101260.44;5084107;28;20545;-72
2023/08/08 02:51:53;;;;;;;9.15;3.47;;;;;;;14.43;100.00;101266.69;5058753;28;20101;-71
2023/08/08 02:54:20;;;;;;;11.27;3.22;;;;;;;14.41;100.00;101259.91;5078503;28;20487;-71
2023/08/08 02:56:46;;;;;;;4.32;2.90;;;;;;;14.35;100.00;101256.09;5077225;28;20115;-73
2023/08/08 02:59:13;;;;;;;11.93;3.13;;;;;;;14.36;100.00;101256.91;5085246;28;20048;-73
2023/08/08 03:01:39;;;;;;;9.88;2.97;;;;;;;14.38;100.00;101250.50;5075214;28;20053;-73
2023/08/08 03:04:06;;;;;;;6.10;3.15;;;;;;;14.36;100.00;101241.91;5071842;28;20052;-73
2023/08/08 03:06:32;;;;;;;8.18;2.83;;;;;;;14.31;100.00;101252.13;5064266;28;20721;-74
2023/08/08 03:08:59;;;;;;;7.78;3.08;;;;;;;14.28;100.00;101247.16;5046213;28;20064;-73
2023/08/08 03:11:25;;;;;;;9.55;3.15;;;;;;;14.23;100.00;101254.75;5060686;28;20064;-73
2023/08/08 03:13:52;;;;;;;8.40;3.03;;;;;;;14.17;100.00;101248.31;5073461;28;20066;-73
2023/08/08 03:16:18;;;;;;;9.23;3.72;;;;;;;14.19;100.00;101253.41;5077591;28;20048;-73
2023/08/08 03:18:45;;;;;;;8.63;3.50;;;;;;;14.13;100.00;101262.81;5054689;28;20056;-73
2023/08/08 03:21:12;;;;;;;9.40;3.75;;;;;;;14.09;100.00;101255.34;5063938;28;20063;-73
2023/08/08 03:23:38;;;;;;;11.30;3.75;;;;;;;14.09;100.00;101253.53;5063984;28;20043;-73
2023/08/08 03:26:05;;;;;;;10.55;4.10;;;;;;;14.10;100.00;101255.19;5075858;28;20066;-73
2023/08/08 03:28:31;;;;;;;12.13;4.78;;;;;;;14.14;100.00;101258.34;5087736;28;20063;-73
2023/08/08 03:30:58;;;;;;;12.55;4.60;;;;;;;14.13;100.00;101251.41;5051260;28;20135;-73
2023/08/08 03:33:24;;;;;;;9.00;4.40;;;;;;;14.15;100.00;101246.78;5063444;28;20056;-73
2023/08/08 03:35:51;;;;;;;13.43;5.05;;;;;;;14.19;100.00;101245.47;5070187;28;20051;-73
2023/08/08 03:38:17;;;;;;;12.73;4.30;;;;;;;14.23;100.00;101245.03;5072659;28;20052;-73
2023/08/08 03:40:44;;;;;;;14.00;4.65;;;;;;;14.19;100.00;101240.19;5076455;28;20048;-74
2023/08/08 03:43:11;;;;;;;12.90;5.10;;;;;;;14.16;100.00;101248.44;5063515;28;20063;-73
2023/08/08 03:45:37;;;;;;;16.33;4.80;;;;;;;14.13;100.00;101238.22;5094308;28;20040;-73
2023/08/08 03:48:04;;;;;;;11.13;4.53;;;;;;;14.15;100.00;101236.22;5047243;28;20052;-73
2023/08/08 03:50:30;;;;;;;8.00;4.30;;;;;;;14.18;100.00;101235.94;5081090;28;20044;-73
2023/08/08 03:52:57;;;;;;;11.75;4.82;;;;;;;14.15;100.00;101234.44;5064129;28;20049;-72
2023/08/08 03:55:25;;;;;;;13.90;5.25;;;;;;;14.14;100.00;101237.25;5072244;28;20570;-73
2023/08/08 03:57:51;;;;;;;15.30;5.40;;;;;;;14.13;100.00;101225.88;5086925;28;20048;-73
2023/08/08 04:00:18;;;;;;;17.80;5.00;;;;;;;14.12;100.00;101228.66;5050833;28;20127;-72
2023/08/08 04:02:45;;;;;;;11.43;4.70;;;;;;;14.14;100.00;101232.78;5056771;28;20040;-72
2023/08/08 04:05:12;;;;;;;15.68;5.43;;;;;;;14.05;100.00;101228.44;5063499;28;20479;-72
2023/08/08 04:07:38;;;;;;;13.38;4.82;;;;;;;14.06;100.00;101229.28;5082042;28;20075;-74
2023/08/08 04:10:06;;;;;;;9.45;4.57;;;;;;;14.01;100.00;101235.03;5055617;28;20063;-74
2023/08/08 04:12:32;;;;;;;13.02;5.50;;;;;;;14.01;100.00;101235.03;5076346;28;20411;-74
2023/08/08 04:14:59;;;;;;;16.20;5.20;;;;;;;14.05;100.00;101231.09;5079781;28;20097;-74
2023/08/08 04:17:26;;;;;;;11.45;4.93;;;;;;;14.07;100.00;101226.47;5062443;28;20052;-74
2023/08/08 04:19:52;;;;;;;13.63;5.15;;;;;;;14.04;100.00;101230.28;5079654;28;20455;-74
2023/08/08 04:22:19;;;;;;;11.52;5.07;;;;;;;14.08;100.00;101225.50;5061911;28;20090;-74
2023/08/08 04:24:45;;;;;;;10.65;4.72;;;;;;;14.14;100.00;101231.97;5080986;28;20133;-74
2023/08/08 04:27:12;;;;;;;16.30;5.53;;;;;;;14.11;100.00;101224.34;5069761;28;20073;-74
2023/08/08 04:29:39;;;;;;;16.52;5.80;;;;;;;14.10;100.00;101238.53;5075143;28;20048;-74
2023/08/08 04:32:05;;;;;;;14.50;6.35;;;;;;;14.13;100.00;101230.28;5080446;28;20113;-73
2023/08/08 04:34:32;;;;;;;10.63;5.45;;;;;;;14.10;100.00;101226.16;5043631;28;20447;-74
2023/08/08 04:36:58;;;;;;;17.90;6.50;;;;;;;14.11;100.00;101219.06;5067687;28;20464;-75
2023/08/08 04:39:25;;;;;;;14.82;5.88;;;;;;;14.06;100.00;101210.84;5061795;28;20056;-74
2023/08/08 04:41:51;;;;;;;21.17;6.55;;;;;;;14.04;100.00;101221.53;5073394;28;20048;-74
2023/08/08 04:44:18;;;;;;;12.93;6.20;;;;;;;14.00;100.00;101222.84;5060792;28;20047;-74
2023/08/08 04:46:45;;;;;;;13.82;5.50;;;;;;;13.99;100.00;101229.09;5087854;28;20459;-72
2023/08/08 04:49:11;;;;;;;13.32;6.45;;;;;;;13.98;100.00;101230.91;5077833;28;20086;-74
2023/08/08 04:51:38;;;;;;;14.95;6.07;;;;;;;13.97;100.00;101228.41;5067397;28;20081;-73
2023/08/08 04:54:04;;;;;;;17.90;6.88;;;;;;;13.96;100.00;101226.78;5043376;28;20215;-73
2023/08/08 04:56:31;;;;;;;15.95;6.50;;;;;;;13.94;100.00;101221.66;5047852;28;20052;-74
2023/08/08 04:58:57;;;;;;;14.45;6.10;;;;;;;14.00;100.00;101221.03;5055391;28;20056;-74
2023/08/08 05:01:24;;;;;;;16.70;6.30;;;;;;;14.01;100.00;101220.06;5073140;28;20053;-74
2023/08/08 05:03:50;;;;;;;15.02;6.07;;;;;;;14.02;100.00;101220.88;5056267;28;20044;-74
2023/08/08 05:06:20;;;;;;;15.52;6.68;;;;;;;14.06;100.00;101222.19;5062779;28;20410;-74
2023/08/08 05:08:48;;;;;;;17.92;7.30;;;;;;;14.05;100.00;101217.91;5043334;28;20220;-73
2023/08/08 05:11:15;;;;;;;17.05;6.78;;;;;;;14.02;100.00;101219.06;5080020;28;20057;-74
2023/08/08 05:13:43;;;;;;;18.00;6.57;;;;;;;14.03;100.00;101223.34;5071468;28;20052;-74
2023/08/08 05:16:09;;;;;;;16.63;6.72;;;;;;;14.03;100.00;101214.59;5055160;28;20056;-74
2023/08/08 05:18:36;;;;;;;17.45;6.93;;;;;;;14.02;100.00;101211.13;5074817;28;20485;-74
2023/08/08 05:21:03;;;;;;;14.23;6.35;;;;;;;14.07;100.00;101215.94;5065404;28;20296;-74
2023/08/08 05:23:29;;;;;;;18.00;7.57;;;;;;;14.06;100.00;101221.38;5063858;28;20409;-74
2023/08/08 05:25:56;;;;;;;14.82;6.82;;;;;;;14.08;100.00;101216.78;5076703;28;20059;-74
2023/08/08 05:28:22;;;;;;;13.40;6.57;;;;;;;14.10;100.00;101212.16;5076971;28;20056;-74
2023/08/08 05:30:49;;;;;;;16.75;6.72;;;;;;;14.12;100.00;101216.28;5074256;28;20048;-74
2023/08/08 05:33:15;;;;;;;14.02;6.50;;;;;;;14.17;100.00;101213.16;5083769;28;20048;-74
2023/08/08 05:35:42;;;;;;;19.77;7.47;;;;;;;14.19;100.00;101209.38;5077115;28;20048;-74
2023/08/08 05:38:08;;;;;;;14.07;6.20;;;;;;;14.27;100.00;101210.38;5070241;28;20479;-74
2023/08/08 05:40:38;;;;;;;16.90;6.25;;;;;;;14.30;100.00;101210.06;5088152;28;20104;-74
2023/08/08 05:43:04;;;;;;;10.55;5.75;;;;;;;14.35;100.00;101210.44;5061112;28;20478;-74
2023/08/08 05:45:31;;;;;;;15.55;6.45;;;;;;;14.39;100.00;101214.38;5079766;28;20067;-74
2023/08/08 05:48:00;;;;;;;15.73;6.22;;;;;;;14.46;100.00;101215.38;5077728;28;20056;-74
2023/08/08 05:50:27;;;;;;;16.58;6.35;;;;;;;14.50;100.00;101223.81;5079677;28;20052;-74
2023/08/08 05:52:54;;;;;;;17.50;6.18;;;;;;;14.52;100.00;101224.47;5084186;28;20052;-74
2023/08/08 05:55:21;;;;;;;18.98;5.70;;;;;;;14.62;100.00;101228.66;5058336;28;20481;-74
2023/08/08 05:57:47;;;;;;;16.88;5.57;;;;;;;14.66;100.00;101221.19;5082528;28;20481;-74
2023/08/08 06:00:15;;;;;;;16.02;6.43;;;;;;;14.64;100.00;101228.47;5072208;28;20114;-74
2023/08/08 06:02:41;;;;;;;14.00;6.63;;;;;;;14.66;100.00;101230.94;5069875;28;20048;-74
2023/08/08 06:05:08;;;;;;;16.27;6.32;;;;;;;14.64;100.00;101225.81;5047334;28;21487;-74
2023/08/08 06:07:35;;;;;;;13.73;5.82;;;;;;;14.62;100.00;101233.09;5075262;28;20044;-74
2023/08/08 06:10:02;;;;;;;12.45;5.22;;;;;;;14.69;100.00;101233.28;5082894;28;20101;-74
2023/08/08 06:12:29;;;;;;;18.92;5.15;;;;;;;14.77;100.00;101228.00;5057501;28;20044;-74
2023/08/08 06:14:55;;;;;;;13.57;5.30;;;;;;;14.76;100.00;101226.31;5074817;28;20497;-74
2023/08/08 06:17:23;;;;;;;18.83;5.65;;;;;;;14.90;100.00;101228.34;5082760;28;20102;-75
2023/08/08 06:19:50;;;;;;;12.80;5.07;;;;;;;14.84;100.00;101231.63;5077918;28;20052;-74
2023/08/08 06:22:17;;;;;;;14.38;4.80;;;;;;;14.85;100.00;101228.00;5072617;28;20044;-73
2023/08/08 06:24:44;;;;;;;12.02;5.03;;;;;;;14.88;100.00;101232.13;5068862;28;20040;-74
2023/08/08 06:27:13;;;;;;;13.60;4.95;;;;;;;14.95;100.00;101233.13;5084430;28;20557;-75
2023/08/08 06:29:39;;;;;;;11.15;5.35;;;;;;;15.02;100.00;101247.31;5071270;28;20089;-74
2023/08/08 06:32:06;;;;;;;14.48;5.40;;;;;;;15.12;100.00;101247.97;5086098;28;20051;-72
2023/08/08 06:34:33;;;;;;;13.77;5.88;;;;;;;15.15;100.00;101241.53;5082285;28;20467;-75
2023/08/08 06:36:59;;;;;;;14.27;5.07;;;;;;;15.17;100.00;101247.47;5081698;28;20109;-71
2023/08/08 06:39:27;;;;;;;11.15;4.63;;;;;;;15.23;100.00;101250.28;5046242;28;20087;-74
2023/08/08 06:41:53;;;;;;;9.73;4.60;;;;;;;15.33;100.00;101246.66;5079087;28;20057;-73
2023/08/08 06:44:21;;;;;;;14.50;5.75;;;;;;;15.29;100.00;101253.25;5087238;28;20455;-73
2023/08/08 06:46:47;;;;;;;9.93;4.80;;;;;;;15.26;100.00;101253.59;5087569;28;20060;-73
2023/08/08 06:49:14;;;;;;;10.88;5.20;;;;;;;15.25;100.00;101262.50;5078612;28;20043;-73
2023/08/08 06:51:40;;;;;;;15.70;4.70;;;;;;;15.22;100.00;101253.91;5070765;28;20346;-74
2023/08/08 06:54:07;;;;;;;16.90;6.13;;;;;;;15.22;100.00;101248.63;5064425;28;20115;-73
2023/08/08 06:56:34;;;;;;;12.18;4.35;;;;;;;15.34;100.00;101257.03;5090909;28;20052;-73
2023/08/08 06:59:01;;;;;;;11.18;4.70;;;;;;;15.41;100.00;101260.66;5051549;28;20101;-73
2023/08/08 07:01:27;;;;;;;10.05;4.55;;;;;;;15.39;100.00;101248.63;5070340;28;20496;-73
2023/08/08 07:03:54;;;;;;;12.52;4.38;;;;;;;15.51;100.00;101257.03;5064254;28;20048;-73
2023/08/08 07:06:20;;;;;;;11.63;4.25;;;;;;;15.62;100.00;101261.94;5079585;28;20048;-73
2023/08/08 07:08:47;;;;;;;8.68;3.67;;;;;;;15.66;100.00;101254.50;5076863;28;20455;-71
2023/08/08 07:11:13;;;;;;;11.63;3.50;;;;;;;15.72;100.00;101249.38;5072827;28;20052;-73
2023/08/08 07:13:40;;;;;;;6.85;2.83;;;;;;;15.81;100.00;101244.91;5063473;28;20036;-73
2023/08/08 07:16:07;;;;;;;8.75;2.92;;;;;;;15.88;100.00;101248.53;5077401;28;20763;-73
2023/08/08 07:18:34;;;;;;;9.25;2.85;;;;;;;15.84;100.00;101270.19;5080531;28;20072;-73
2023/08/08 07:21:00;;;;;;;9.68;2.65;;;;;;;15.92;100.00;101244.53;5040542;28;20064;-73
2023/08/08 07:23:27;;;;;;;10.15;2.30;;;;;;;15.88;100.00;101248.53;5076901;28;20572;-71
2023/08/08 07:25:53;;;;;;;6.55;2.47;;;;;;;15.96;100.00;101232.63;5050231;28;20075;-71
2023/08/08 07:28:20;;;;;;;9.73;2.72;;;;;;;16.05;100.00;101235.22;5088613;28;20088;-73
2023/08/08 07:30:46;;;;;;;8.63;2.58;;;;;;;16.10;100.00;101224.97;5088040;28;20079;-73
2023/08/08 07:33:13;;;;;;;9.95;2.85;;;;;;;16.14;100.00;101235.03;5077729;28;20048;-73
2023/08/08 07:35:40;;;;;;;11.02;2.33;;;;;;;16.07;100.00;101233.22;5056708;28;20130;-73
2023/08/08 07:38:06;;;;;;;5.85;1.83;;;;;;;16.23;100.00;101233.16;5050067;28;20428;-74
2023/08/08 07:40:33;;;;;;;7.80;1.55;;;;;;;16.21;100.00;101229.88;5082794;28;20043;-72
2023/08/08 07:43:00;;;;;;;4.20;1.48;;;;;;;16.21;100.00;101224.59;5082234;28;20059;-73
2023/08/08 07:45:26;;;;;;;5.22;1.33;;;;;;;16.32;100.00;101229.47;5081042;28;20640;-73
2023/08/08 07:47:53;;;;;;;6.75;1.55;;;;;;;16.29;100.00;101229.81;5076020;28;20139;-73
2023/08/08 07:50:20;;;;;;;7.25;1.48;;;;;;;16.36;100.00;101238.69;5069513;28;20047;-71
2023/08/08 07:52:46;;;;;;;3.30;1.17;;;;;;;16.44;100.00;101232.53;5089456;28;20482;-74
2023/08/08 07:55:13;;;;;;;3.80;1.00;;;;;;;16.48;100.00;101239.13;5061758;28;20113;-74
2023/08/08 07:57:39;;;;;;;7.70;1.27;;;;;;;16.54;100.00;101232.31;5070066;28;20121;-74
2023/08/08 08:00:11;;;;;;;5.80;1.15;;;;;;;16.58;100.00;101233.59;5074624;28;20135;-73
2023/08/08 08:02:42;;;;;;;3.65;1.00;;;;;;;16.61;100.00;101220.03;5068878;28;20070;-73
2023/08/08 08:05:09;;;;;;;4.10;1.08;;;;;;;16.72;100.00;101222.28;5051394;28;20048;-74
2023/08/08 08:07:37;;;;;;;6.18;1.25;;;;;;;16.83;100.00;101222.88;5062562;28;20053;-73
2023/08/08 08:10:06;;;;;;;5.55;1.00;;;;;;;16.90;100.00;101224.63;5068178;28;20067;-71
2023/08/08 08:12:33;;;;;;;3.08;0.98;;;;;;;16.79;98.28;101235.63;5062251;28;20125;-71
2023/08/08 08:15:01;;;;;;;4.28;1.05;;;;;;;16.77;97.75;101230.50;5078767;28;20043;-71
2023/08/08 08:17:28;;;;;;;;;;;;;;;16.82;99.83;101229.16;5057812;28;20151;-71
2023/08/08 08:19:54;;;;;;;4.05;0.98;;;;;;;16.78;96.78;101234.81;5066073;28;20565;-72
2023/08/08 08:22:21;;;;;;;4.72;0.80;;;;;;;16.94;96.85;101231.22;5078378;28;20054;-73
2023/08/08 08:24:48;;;;;;;2.00;0.85;;;;;;;17.06;99.17;101218.38;5054135;28;20048;-71
2023/08/08 08:27:14;;;;;;;1.70;0.70;;;;;;;17.22;96.25;101224.53;5082358;28;20198;-71
2023/08/08 08:29:41;;;;;;;7.30;1.20;;;;;;;17.32;94.52;101223.25;5051491;28;20048;-72
2023/08/08 08:32:07;;;;;;;3.65;0.90;;;;;;;17.29;88.98;101225.44;5064041;28;20056;-73
2023/08/08 08:34:34;;;;;;;4.30;0.80;;;;;;;17.49;89.66;101221.28;5065890;28;20052;-72
2023/08/08 08:37:00;;;;;;;5.75;2.28;;;;;;;17.66;91.63;101210.47;5081669;28;20044;-72
2023/08/08 08:39:27;;;;;;;4.97;1.05;;;;;;;17.73;85.55;101219.34;5079447;28;20101;-73
2023/08/08 08:42:01;;;;;;;3.55;1.30;;;;;;;17.78;86.32;101212.47;5075832;28;20051;-73
2023/08/08 08:44:31;;;;;;;3.70;0.90;;;;;;;17.92;81.02;101231.25;5080048;28;20142;-74
2023/08/08 08:47:10;;;;;;;2.33;0.80;;;;;;;17.99;85.02;101232.16;5077448;28;20214;-73
2023/08/08 08:49:38;;;;;;;2.08;0.70;;;;;;;18.13;85.74;101233.13;5092390;28;20048;-73
2023/08/08 08:52:05;;;;;;;3.08;0.90;;;;;;;18.15;80.91;101224.00;5072653;28;20064;-72
2023/08/08 08:54:33;;;;;;;3.67;1.10;;;;;;;18.25;81.09;101228.16;5069118;28;20048;-72
2023/08/08 08:57:01;;;;;;;3.80;0.95;;;;;;;18.25;81.83;101217.53;5057338;28;20132;-73
2023/08/08 08:59:28;;;;;;;2.47;0.70;;;;;;;18.08;79.38;101233.69;5079773;28;20128;-73
2023/08/08 09:01:55;;;;;;;3.80;0.82;;;;;;;18.46;84.28;101211.44;5088267;28;20580;-73
2023/08/08 09:04:22;;;;;;;2.08;0.60;;;;;;;18.45;77.89;101223.91;5074389;28;20410;-72
2023/08/08 09:06:50;;;;;;;3.03;0.57;;;;;;;18.32;76.77;101227.22;5071025;28;20055;-73
2023/08/08 09:09:17;;;;;;;1.45;0.63;;;;;;;18.12;75.72;101220.88;5090981;28;20047;-73
2023/08/08 09:11:50;;;;;;;0.77;0.50;;;;;;;18.22;74.90;101215.28;5076531;28;20135;-73
2023/08/08 09:14:21;;;;;;;3.85;0.80;;;;;;;18.38;74.37;101234.47;5068112;28;20105;-73
2023/08/08 09:16:48;;;;;;;2.22;0.70;;;;;;;18.40;76.05;101222.81;5065552;28;20501;-73
2023/08/08 09:19:17;;;;;;;4.07;0.88;;;;;;;18.17;72.20;101219.31;5061975;28;20135;-73
2023/08/08 09:21:44;;;;;;;2.35;0.77;;;;;;;18.09;72.59;101226.56;5065706;28;20131;-72
2023/08/08 09:24:11;;;;;;;1.98;0.88;;;;;;;18.28;77.58;101214.53;5084284;28;20051;-73
2023/08/08 09:26:39;;;;;;;2.90;0.60;;;;;;;18.16;73.46;101233.59;5078108;28;20057;-73
2023/08/08 09:29:06;;;;;;;;;;;;;;;18.51;72.55;101227.66;5074351;28;20117;-73
2023/08/08 09:31:35;;;;;;;0.82;0.50;;;;;;;18.60;66.16;101226.50;5084568;28;19928;-73
2023/08/08 09:34:02;;;;;;;;;;;;;;;18.45;65.11;101231.06;5060978;28;20535;-73
2023/08/08 09:36:29;;;;;;;2.15;0.63;;;;;;;18.77;65.74;101229.72;5090127;28;20295;-73
2023/08/08 09:38:59;;;;;;;0.40;0.40;;;;;;;18.79;69.99;101227.69;5065854;28;20424;-72
2023/08/08 09:41:26;;;;;;;1.45;0.52;;;;;;;18.91;67.06;101236.81;5082938;28;20105;-73
2023/08/08 09:43:53;;;;;;;1.42;0.57;;;;;;;18.86;66.13;101241.91;5093743;28;20053;-72
2023/08/08 09:46:22;;;;;;;3.83;0.90;;;;;;;18.94;67.65;101230.31;5075965;28;20063;-73
2023/08/08 09:48:48;;;;;;;;;;;;;;;19.02;67.24;101227.53;5077250;28;20048;-73
2023/08/08 09:51:16;;;;;;;0.85;0.60;;;;;;;18.99;71.89;101235.06;5092652;28;19920;-73
2023/08/08 09:53:44;;;;;;;1.60;0.80;;;;;;;18.75;72.14;101229.09;5055299;28;20079;-73
2023/08/08 09:56:12;;;;;;;1.40;0.82;;;;;;;18.67;73.92;101226.56;5076243;28;20493;-74
2023/08/08 09:58:38;;;;;;;;;;;;;;;18.71;76.30;101241.13;5084707;28;20063;-71
2023/08/08 10:01:06;;;;;;;2.45;0.80;;;;;;;18.62;71.96;101240.44;5084791;28;19920;-72
2023/08/08 10:03:34;;;;;;;3.63;0.80;;;;;;;18.52;70.73;101240.75;5086180;28;20029;-72
2023/08/08 10:06:01;;;;;;;2.70;0.70;;;;;;;18.66;70.05;101239.03;5099483;28;20082;-72
2023/08/08 10:08:29;;;;;;;2.17;0.68;;;;;;;19.06;72.67;101230.63;5085877;28;20050;-72
2023/08/08 10:10:56;;;;;;;4.57;0.80;;;;;;;19.59;74.65;101223.00;5084766;28;20274;-72
2023/08/08 10:13:24;;;;;;;3.40;0.75;;;;;;;19.95;69.94;101225.47;5079811;28;20052;-72
2023/08/08 10:15:52;;;;;;;3.78;0.93;;;;;;;19.92;69.89;101235.69;5072058;28;20052;-72
2023/08/08 10:18:22;;;;;;;4.47;0.73;;;;;;;19.78;68.93;101231.31;5065060;28;20064;-72
2023/08/08 10:20:50;;;;;;;3.63;0.73;;;;;;;19.77;69.60;101229.69;5074051;28;20056;-72
2023/08/08 10:23:18;;;;;;;3.45;0.70;;;;;;;19.58;69.08;101233.84;5088798;28;20079;-73
2023/08/08 10:25:50;;;;;;;3.08;0.88;;;;;;;19.39;71.02;101244.16;5083105;28;20060;-73
2023/08/08 10:28:18;;;;;;;2.63;0.80;;;;;;;19.71;69.90;101226.78;5074822;28;20064;-73
2023/08/08 10:30:56;;;;;;;4.18;1.02;;;;;;;19.82;67.38;101230.72;5075085;28;20084;-73
2023/08/08 10:33:24;;;;;;;1.80;0.80;;;;;;;20.05;65.87;101235.75;5047715;28;20143;-74
2023/08/08 10:35:56;;;;;;;;;;;;;;;19.83;65.18;101248.34;5050227;28;20135;-73
2023/08/08 10:38:38;;;;;;;1.23;0.60;;;;;;;19.48;65.85;101239.50;5073464;28;20377;-74
2023/08/08 10:41:05;;;;;;;5.97;1.00;;;;;;;19.51;68.10;101236.47;5083032;28;20564;-74
2023/08/08 10:43:31;;;;;;;3.25;0.80;;;;;;;19.42;68.10;101243.75;5063520;28;20075;-74
2023/08/08 10:46:00;;;;;;;2.15;0.93;;;;;;;19.19;66.63;101248.50;5097094;28;20055;-74
2023/08/08 10:48:50;;;;;;;2.58;0.93;;;;;;;19.26;70.68;101236.91;5072144;28;20067;-72
2023/08/08 10:51:17;;;;;;;2.90;0.98;;;;;;;18.85;68.17;101255.38;5066995;28;20820;-73
2023/08/08 10:53:43;;;;;;;2.25;0.80;;;;;;;18.82;71.44;101239.81;5067338;28;20075;-73
2023/08/08 10:56:13;;;;;;;1.92;0.73;;;;;;;18.91;72.58;101244.81;5061432;28;20056;-73
2023/08/08 10:58:48;;;;;;;1.70;0.80;;;;;;;19.30;71.43;101246.13;5075173;28;20097;-73
2023/08/08 11:01:16;;;;;;;1.58;0.90;;;;;;;19.40;72.08;101239.66;5079640;28;20177;-73
2023/08/08 11:03:44;;;;;;;1.08;0.70;;;;;;;19.65;72.19;101248.00;5071055;28;20815;-73
2023/08/08 11:06:10;;;;;;;1.67;0.82;;;;;;;19.79;66.10;101243.59;5068325;28;20080;-73
2023/08/08 11:08:38;;;;;;;1.90;0.90;;;;;;;19.92;64.75;101225.84;5068918;28;20401;-73
2023/08/08 11:11:06;;;;;;;1.67;0.80;;;;;;;20.05;65.12;101229.59;5063424;28;20049;-73
2023/08/08 11:13:33;;;;;;;3.72;1.15;;;;;;;20.18;61.59;101229.63;5088170;28;20048;-73
2023/08/08 11:16:03;;;;;;;1.60;0.85;;;;;;;20.52;63.59;101233.19;5054265;28;20056;-71
2023/08/08 11:18:30;;;;;;;1.30;0.60;;;;;;;20.36;62.79;101237.06;5080051;28;20058;-73